AAL364 KDAL-KEWR
Flight info
| Callsign | AAL364 |
|---|---|
| Flight time | N/A |
| Altitude | 37000 |
| Route | LNDRE5 FORCK ELD IZAAC Q30 VLKNN THRSR TWOUP Q22 UMBRE QUART PHLBO4 |
| Aircraft | A320/M-SDE3FGHIRWY/LB1 |
Departure
| Time | 2026-04-29 20:32 |
|---|---|
| Airport | Dallas Love Field (KDAL) |
Arrival
| Time | N/A |
|---|---|
| Airport | Newark Liberty International Airport (KEWR) |
| Time | Latitude | Longitude | Altitude | Speed | Heading |
|---|---|---|---|---|---|
| 2026-04-29 20:07 | 32.84645 | -96.85042 | 482 ft | 0 kts | 180° |
| 2026-04-29 20:21 | 32.84647 | -96.85042 | 488 ft | 2 kts | 180° |
| 2026-04-29 20:21 | 32.84674 | -96.85041 | 484 ft | 4 kts | 182° |
| 2026-04-29 20:21 | 32.84691 | -96.85040 | 486 ft | 4 kts | 186° |
| 2026-04-29 20:22 | 32.84726 | -96.85032 | 485 ft | 4 kts | 207° |
| 2026-04-29 20:22 | 32.84740 | -96.85021 | 482 ft | 4 kts | 239° |
| 2026-04-29 20:22 | 32.84744 | -96.85009 | 483 ft | 0 kts | 270° |
| 2026-04-29 20:26 | 32.84744 | -96.85017 | 482 ft | 6 kts | 270° |
| 2026-04-29 20:26 | 32.84745 | -96.85107 | 491 ft | 11 kts | 270° |
| 2026-04-29 20:27 | 32.84745 | -96.85199 | 490 ft | 13 kts | 270° |
| 2026-04-29 20:27 | 32.84745 | -96.85270 | 489 ft | 13 kts | 263° |
| 2026-04-29 20:27 | 32.84655 | -96.85334 | 485 ft | 12 kts | 186° |
| 2026-04-29 20:27 | 32.84572 | -96.85342 | 484 ft | 14 kts | 184° |
| 2026-04-29 20:28 | 32.84470 | -96.85350 | 484 ft | 15 kts | 182° |
| 2026-04-29 20:28 | 32.84385 | -96.85298 | 482 ft | 13 kts | 136° |
| 2026-04-29 20:28 | 32.84328 | -96.85227 | 485 ft | 14 kts | 134° |
| 2026-04-29 20:28 | 32.84244 | -96.85130 | 477 ft | 24 kts | 135° |
| 2026-04-29 20:29 | 32.84123 | -96.84986 | 486 ft | 24 kts | 137° |
| 2026-04-29 20:29 | 32.84002 | -96.84854 | 490 ft | 24 kts | 135° |
| 2026-04-29 20:29 | 32.83881 | -96.84712 | 491 ft | 25 kts | 135° |
| 2026-04-29 20:29 | 32.83753 | -96.84560 | 482 ft | 27 kts | 135° |
| 2026-04-29 20:30 | 32.83618 | -96.84403 | 488 ft | 28 kts | 136° |
| 2026-04-29 20:30 | 32.83491 | -96.84280 | 484 ft | 9 kts | 185° |
| 2026-04-29 20:30 | 32.83454 | -96.84309 | 489 ft | 5 kts | 214° |
| 2026-04-29 20:30 | 32.83435 | -96.84329 | 491 ft | 3 kts | 227° |
| 2026-04-29 20:31 | 32.83439 | -96.84378 | 490 ft | 10 kts | 313° |
| 2026-04-29 20:31 | 32.83507 | -96.84461 | 483 ft | 21 kts | 316° |
| 2026-04-29 20:31 | 32.83794 | -96.84799 | 491 ft | 93 kts | 317° |
| 2026-04-29 20:31 | 32.84412 | -96.85492 | 490 ft | 149 kts | 320° |
| 2026-04-29 20:32 | 32.85156 | -96.86413 | 1007 ft | 156 kts | 315° |
| 2026-04-29 20:32 | 32.85902 | -96.87375 | 1619 ft | 158 kts | 317° |
| 2026-04-29 20:32 | 32.86679 | -96.88287 | 2211 ft | 158 kts | 321° |
| 2026-04-29 20:32 | 32.87512 | -96.89217 | 2498 ft | 177 kts | 322° |
| 2026-04-29 20:33 | 32.88484 | -96.90297 | 2691 ft | 199 kts | 320° |
| 2026-04-29 20:33 | 32.89549 | -96.91377 | 3054 ft | 206 kts | 334° |
| 2026-04-29 20:33 | 32.90915 | -96.91628 | 3502 ft | 201 kts | 14° |
| 2026-04-29 20:33 | 32.92161 | -96.90869 | 3942 ft | 206 kts | 33° |
| 2026-04-29 20:34 | 32.93382 | -96.89908 | 4365 ft | 214 kts | 33° |
| 2026-04-29 20:34 | 32.94653 | -96.88878 | 4683 ft | 232 kts | 37° |
| 2026-04-29 20:34 | 32.95707 | -96.87292 | 4927 ft | 258 kts | 68° |
| 2026-04-29 20:34 | 32.96087 | -96.85120 | 5319 ft | 280 kts | 86° |
| 2026-04-29 20:35 | 32.96282 | -96.82772 | 6021 ft | 290 kts | 85° |
| 2026-04-29 20:35 | 32.96409 | -96.80347 | 6709 ft | 297 kts | 94° |
| 2026-04-29 20:35 | 32.96090 | -96.77923 | 6939 ft | 297 kts | 110° |
| 2026-04-29 20:35 | 32.95318 | -96.75666 | 7144 ft | 298 kts | 117° |
| 2026-04-29 20:36 | 32.94466 | -96.73401 | 7928 ft | 300 kts | 117° |
| 2026-04-29 20:36 | 32.93609 | -96.71092 | 8659 ft | 306 kts | 117° |
| 2026-04-29 20:36 | 32.92748 | -96.68750 | 9360 ft | 312 kts | 117° |
| 2026-04-29 20:36 | 32.91869 | -96.66349 | 10048 ft | 319 kts | 117° |
| 2026-04-29 20:37 | 32.90953 | -96.63855 | 10344 ft | 339 kts | 117° |
| 2026-04-29 20:37 | 32.89971 | -96.61196 | 10509 ft | 363 kts | 116° |
| 2026-04-29 20:37 | 32.88949 | -96.58432 | 10908 ft | 375 kts | 116° |
| 2026-04-29 20:37 | 32.87900 | -96.55587 | 11475 ft | 381 kts | 116° |
| 2026-04-29 20:38 | 32.86830 | -96.52669 | 12133 ft | 386 kts | 116° |
| 2026-04-29 20:38 | 32.85753 | -96.49728 | 12837 ft | 390 kts | 116° |
| 2026-04-29 20:38 | 32.84660 | -96.46747 | 13520 ft | 396 kts | 117° |
| 2026-04-29 20:38 | 32.83547 | -96.43725 | 14125 ft | 402 kts | 116° |
| 2026-04-29 20:39 | 32.82411 | -96.40669 | 14708 ft | 407 kts | 116° |
| 2026-04-29 20:39 | 32.81267 | -96.37571 | 15299 ft | 412 kts | 114° |
| 2026-04-29 20:39 | 32.80429 | -96.34288 | 15896 ft | 419 kts | 103° |
| 2026-04-29 20:39 | 32.80116 | -96.30827 | 16493 ft | 424 kts | 91° |
| 2026-04-29 20:40 | 32.80336 | -96.27313 | 17074 ft | 428 kts | 82° |
| 2026-04-29 20:40 | 32.80725 | -96.23795 | 17640 ft | 432 kts | 82° |
| 2026-04-29 20:40 | 32.81105 | -96.20219 | 18236 ft | 437 kts | 83° |
| 2026-04-29 20:40 | 32.81475 | -96.16620 | 18731 ft | 441 kts | 83° |
| 2026-04-29 20:41 | 32.81842 | -96.12981 | 19213 ft | 446 kts | 83° |
| 2026-04-29 20:41 | 32.82209 | -96.09321 | 19686 ft | 450 kts | 83° |
| 2026-04-29 20:41 | 32.82585 | -96.05603 | 20147 ft | 456 kts | 83° |
| 2026-04-29 20:41 | 32.82971 | -96.01828 | 20651 ft | 460 kts | 83° |
| 2026-04-29 20:42 | 32.83358 | -95.98046 | 21138 ft | 465 kts | 84° |
| 2026-04-29 20:42 | 32.83754 | -95.94189 | 21625 ft | 470 kts | 84° |
| 2026-04-29 20:42 | 32.84145 | -95.90382 | 22075 ft | 474 kts | 84° |
| 2026-04-29 20:42 | 32.84544 | -95.86473 | 22517 ft | 478 kts | 84° |
| 2026-04-29 20:43 | 32.84944 | -95.82510 | 22935 ft | 483 kts | 84° |
| 2026-04-29 20:43 | 32.85345 | -95.78540 | 23355 ft | 486 kts | 84° |
| 2026-04-29 20:43 | 32.85745 | -95.74525 | 23738 ft | 490 kts | 84° |
| 2026-04-29 20:43 | 32.86146 | -95.70485 | 24064 ft | 494 kts | 84° |
| 2026-04-29 20:44 | 32.86551 | -95.66416 | 24389 ft | 498 kts | 84° |
| 2026-04-29 20:44 | 32.86960 | -95.62305 | 24710 ft | 501 kts | 84° |
| 2026-04-29 20:44 | 32.87371 | -95.58159 | 25030 ft | 505 kts | 83° |
| 2026-04-29 20:44 | 32.87784 | -95.54013 | 25345 ft | 508 kts | 83° |
| 2026-04-29 20:45 | 32.88202 | -95.49814 | 25658 ft | 511 kts | 83° |
| 2026-04-29 20:45 | 32.88617 | -95.45594 | 25964 ft | 515 kts | 83° |
| 2026-04-29 20:45 | 32.89032 | -95.41366 | 26268 ft | 518 kts | 83° |
| 2026-04-29 20:45 | 32.89449 | -95.37093 | 26573 ft | 521 kts | 83° |
| 2026-04-29 20:46 | 32.89866 | -95.32793 | 26861 ft | 524 kts | 83° |
| 2026-04-29 20:46 | 32.90277 | -95.28523 | 27213 ft | 526 kts | 83° |
| 2026-04-29 20:46 | 32.90690 | -95.24196 | 27535 ft | 528 kts | 83° |
| 2026-04-29 20:46 | 32.91103 | -95.19838 | 27834 ft | 531 kts | 83° |
| 2026-04-29 20:47 | 32.91517 | -95.15462 | 28121 ft | 534 kts | 83° |
| 2026-04-29 20:47 | 32.91933 | -95.11074 | 28397 ft | 536 kts | 83° |
| 2026-04-29 20:47 | 32.92356 | -95.06645 | 28671 ft | 539 kts | 83° |
| 2026-04-29 20:47 | 32.92782 | -95.02199 | 28939 ft | 542 kts | 82° |
| 2026-04-29 20:48 | 32.93207 | -94.97732 | 29195 ft | 544 kts | 82° |
| 2026-04-29 20:48 | 32.93631 | -94.93258 | 29448 ft | 545 kts | 82° |
| 2026-04-29 20:48 | 32.94051 | -94.88776 | 29859 ft | 544 kts | 82° |
| 2026-04-29 20:48 | 32.94469 | -94.84290 | 30140 ft | 544 kts | 82° |
| 2026-04-29 20:49 | 32.94879 | -94.79846 | 30353 ft | 546 kts | 82° |
| 2026-04-29 20:49 | 32.95293 | -94.75351 | 30578 ft | 546 kts | 82° |
| 2026-04-29 20:49 | 32.95708 | -94.70819 | 30882 ft | 545 kts | 82° |
| 2026-04-29 20:49 | 32.96117 | -94.66343 | 31191 ft | 543 kts | 82° |
| 2026-04-29 20:50 | 32.96526 | -94.61859 | 31505 ft | 543 kts | 82° |
| 2026-04-29 20:50 | 32.96932 | -94.57402 | 31855 ft | 541 kts | 82° |
| 2026-04-29 20:50 | 32.97339 | -94.52938 | 32108 ft | 542 kts | 82° |
| 2026-04-29 20:50 | 32.97736 | -94.48537 | 32333 ft | 543 kts | 82° |
| 2026-04-29 20:51 | 32.98139 | -94.44045 | 32599 ft | 543 kts | 82° |
| 2026-04-29 20:51 | 32.98537 | -94.39597 | 32902 ft | 542 kts | 82° |
| 2026-04-29 20:51 | 32.98937 | -94.35149 | 33203 ft | 541 kts | 82° |
| 2026-04-29 20:51 | 32.99336 | -94.30688 | 33494 ft | 540 kts | 82° |
| 2026-04-29 20:52 | 32.99730 | -94.26202 | 33758 ft | 539 kts | 82° |
| 2026-04-29 20:52 | 33.00112 | -94.21799 | 34035 ft | 539 kts | 82° |
| 2026-04-29 20:52 | 33.00492 | -94.17383 | 34287 ft | 538 kts | 82° |
| 2026-04-29 20:52 | 33.00875 | -94.12913 | 34588 ft | 535 kts | 82° |
| 2026-04-29 20:53 | 33.01245 | -94.08543 | 34865 ft | 534 kts | 82° |
| 2026-04-29 20:53 | 33.01617 | -94.04127 | 35082 ft | 533 kts | 82° |
| 2026-04-29 20:53 | 33.01982 | -93.99755 | 35319 ft | 533 kts | 82° |
| 2026-04-29 20:53 | 33.02346 | -93.95373 | 35544 ft | 532 kts | 82° |
| 2026-04-29 20:54 | 33.03071 | -93.86610 | 35986 ft | 531 kts | 82° |
| 2026-04-29 20:54 | 33.03429 | -93.82261 | 36180 ft | 531 kts | 82° |
| 2026-04-29 20:54 | 33.03797 | -93.77893 | 36435 ft | 528 kts | 82° |
| 2026-04-29 20:55 | 33.04183 | -93.73548 | 36720 ft | 525 kts | 81° |
| 2026-04-29 20:55 | 33.04566 | -93.69236 | 36934 ft | 524 kts | 81° |
| 2026-04-29 20:55 | 33.04948 | -93.64921 | 37009 ft | 524 kts | 81° |
| 2026-04-29 20:56 | 33.05716 | -93.56278 | 37010 ft | 523 kts | 81° |
| 2026-04-29 20:56 | 33.06491 | -93.47663 | 37008 ft | 522 kts | 81° |
| 2026-04-29 20:57 | 33.07273 | -93.39041 | 36999 ft | 522 kts | 81° |
| 2026-04-29 20:57 | 33.08059 | -93.30436 | 36992 ft | 522 kts | 81° |
| 2026-04-29 20:58 | 33.08853 | -93.21812 | 36988 ft | 522 kts | 81° |
| 2026-04-29 20:58 | 33.09656 | -93.13191 | 36990 ft | 522 kts | 81° |
| 2026-04-29 20:59 | 33.10459 | -93.04638 | 37035 ft | 522 kts | 81° |
| 2026-04-29 20:59 | 33.11324 | -92.96011 | 36982 ft | 525 kts | 81° |
| 2026-04-29 21:00 | 33.12217 | -92.87344 | 36976 ft | 528 kts | 81° |
| 2026-04-29 21:00 | 33.13083 | -92.78590 | 36971 ft | 534 kts | 81° |
| 2026-04-29 21:01 | 33.13877 | -92.69690 | 36986 ft | 542 kts | 81° |
| 2026-04-29 21:01 | 33.14661 | -92.60768 | 36998 ft | 546 kts | 81° |
| 2026-04-29 21:02 | 33.15438 | -92.51751 | 37002 ft | 546 kts | 81° |
| 2026-04-29 21:02 | 33.16224 | -92.42716 | 37006 ft | 546 kts | 81° |